Detall de PIREP

Printer-friendly versionPDF version

[2013/12/19 10:39:00]
Flight IATA:CT1004
Pilot Number:042
Company ICAO:CAT
Aircraft Type:A320/E
PAX:123
Departing Airport: LERS
Destination Airport: LFMN
Alternate Airport:LFML
Online: VATSIM
Route:BCN UN870 SOSUR UM976 MRM UY122 ABLAK
Flight Level:F300
No Slew and time accel
No pause
Crash detect
Detect pilot in Cockpit between each 30 and 45 minutes
10:39 Zero fuel Weight: 115602 Lbs, Fuel Weight: 46045 Lbs
10:39 VATSIM:LERS 191030Z 00000KT 9000 4000 FEW040 SCT050 12/09 Q1016
10:39 VATSIM:LFMN 191030Z 34011KT 9000 -RA SCT023 BKN030 08/05 Q1020 NOSIG
10:40 VOICE CATALONIAN/X-MAS CHARTER
10:51 Parking Brakes off
10:58 Take-off
10:58 Take off Weight: 160711 Lbs
10:58 Wind: 247º @ 002 Knots Heading: 249º
10:58 POS N41º 08´ 36´´ E001º 09´ 11´´
10:58 Gear Up: 177 Knots
10:58 Flaps:3 at 177 Knots
10:58 Flaps:2 at 178 Knots
10:58 Flaps:1 at 189 Knots
10:59 Flaps:0 at 207 Knots
11:13 Wind:211º@000 Knots Heading: 117º Ground Speed: 450 Knots Altitude 29176 ft
11:13 TOC
11:13 Fuel Weight: 41609 Lb
11:28 Wind:164º@016 Knots Heading: 068º Ground Speed: 445 Knots Altitude 30055 ft
11:37 TOD
11:37 Fuel Weight: 39026 Lb
11:41 Flaps:1 at 270 Knots
11:43 Wind:142º@051 Knots Heading: 077º Ground Speed: 312 Knots Altitude 22424 ft
11:52 Flaps:2 at 243 Knots
11:56 Flaps:3 at 241 Knots
11:58 Wind:330º@001 Knots Heading: 042º Ground Speed: 214 Knots Altitude 2785 ft
11:58 Flaps:4 at 190 Knots
11:59 Gear Down: 176 Knots
11:59 Flaps:5 at 174 Knots
11:59 Flaps:6 at 163 Knots
11:59 Flaps:7 at 151 Knots
12:01 Flaps:8 at 145 Knots
12:02 Flaps:7 at 147 Knots
12:02 TouchDown:Rate -209 ft/min Speed: 144 Knots
12:03 VATSIM:LFMN 191130Z 33010KT 7000 -RA BKN023 BKN030 08/06 Q1020 NOSIG
12:03 Land
12:03 Wind:330º@009 Knots
12:03 Heading: 042º
12:03 Flight Duration: 01:05
12:03 Landing Weight: 153391 Lbs
12:03 POS N43º 39´ 15´´ E007º 12´ 46´´
12:08 Parking brakes on
12:08 Block to Block Duration: 01:17
12:08 Final Fuel: 37321 Lbls
12:08 Spent Fuel: 8723 Lbls
12:08 Flight Length: 390 NM
12:08 TOD Land Length: 118 NM

Exportar CSV

Powered by Drupal - Modified by Danger4k